EGJB - Guernsey Airport
Distance from station: E 5mi, 14km
Updated: 10/16/2017 10:20pm
Few Clouds
Few Clouds
 Wind from WSW
Wind: WSW 5 mph , 7 km/h
Temperature: 54°F , 12°C
Dew Point: 48°F , 9°C
Humidity: 82%
Barometer: 30.12 inHg , 1020 hPa
Clouds: Few Clouds
Visibility: 6 miles , 10 km
Cloud details: Few Clouds 2200 ft
2017/10/17 05:20 EGJB 170520Z 24004KT 9999 FEW022 12/09 Q1020